Fairfield Pond, Vermont
Current Conditions -  °F | °C
As of 9:35 AM on Tuesday 27 Jan 2015 (Local Time) from KFSO Reporting Station
Clear Clear  
Wind Chill: -12°   Ceiling: Unl
Heat Index:   Visibility: 10mi
Dew Point: -4°   Wind: 16mph
Humidity: 61%   Direction: 360°N
Pressure: 30.01"   Gusts: 26mph
Location:  44.8776°N, 72.9201°W
Report Text: KFSO 271435Z AUTO 36014G23KT 10SM CLR M14/M20 A3001 RMK AO2 T11421202
Loading
Personal Weather Stations






























Interactive Weather Map New forecast layout! Learn more

10-Day Weather Forecast

Advertisements
Track Severe Weather on mobile